PWSweather.com
Personal Weather Stations
Station Observations
KCAOCEAN4
Jeffries Ranch, Oceanside, CA 92057

Jeffries RanchOceanside, CA 92057

Lat: 33.2463208, Lon: -117.25335080000002

Elevation: 207

Station Type: Davis Vantage Vue

jeffriesranchweather.com

High Low Average
Temperature 63.9°F17.7°C 54.9°F12.7°C 59.2°F15.1°C
Dew Point 59.2°F15.1°C 48.4°F9.1°C 54.4°F12.4°C
Winds 8.9 mph 14.3 kmh Calm Calm 3.0 mph SW4.8 kmh SW
Wind Gusts 16.1 mph25.9 kmh -- 7.0 mph11.3 kmh
Humidity 97% 58% 85%
Pressure 30.01 in1016.3 mb 29.93 in1013.5 mb -
Precipitation 0.02 in0.5 mm - -
Hour Temp Dew Point Humidity Winds Wind Gusts Pressure Precip Precip Rate Daily Precip Total
12:08 AM 60.1°F15.6°C 59.2°F15.1°C 97% Calm Calm 2.0 mph3.2 kmh 29.99 in1015.6 mb 0.01 in0.3 mm 0.08 in2.0 mm 0.01 in0.3 mm
12:18 AM 60.1°F15.6°C 59.2°F15.1°C 97% Calm Calm 2.0 mph3.2 kmh 29.99 in1015.6 mb 0.01 in0.3 mm 0.00 in0.0 mm 0.01 in0.3 mm
12:28 AM 60.1°F15.6°C 59.2°F15.1°C 97% Calm Calm 0.9 mph1.4 kmh 29.99 in1015.6 mb 0.00 in0.0 mm 0.00 in0.0 mm 0.01 in0.3 mm
12:38 AM 60.1°F15.6°C 59.2°F15.1°C 97% Calm Calm 2.0 mph3.2 kmh 29.99 in1015.6 mb 0.00 in0.0 mm 0.00 in0.0 mm 0.01 in0.3 mm
12:48 AM 60.1°F15.6°C 59.2°F15.1°C 97% Calm Calm 0.9 mph1.4 kmh 29.99 in1015.6 mb 0.00 in0.0 mm 0.00 in0.0 mm 0.01 in0.3 mm
12:58 AM 60.1°F15.6°C 59.2°F15.1°C 97% Calm Calm 2.0 mph3.2 kmh 29.99 in1015.6 mb 0.00 in0.0 mm 0.00 in0.0 mm 0.01 in0.3 mm
01:08 AM 60.1°F15.6°C 59.2°F15.1°C 97% 0.9 mph W1.4 kmh W 4.0 mph6.4 kmh 29.98 in1015.2 mb 0.00 in0.0 mm 0.00 in0.0 mm 0.01 in0.3 mm
01:18 AM 60.1°F15.6°C 59.2°F15.1°C 97% 0.9 mph WSW1.4 kmh WSW 2.0 mph3.2 kmh 29.98 in1015.2 mb 0.00 in0.0 mm 0.00 in0.0 mm 0.01 in0.3 mm
01:28 AM 60.1°F15.6°C 59.2°F15.1°C 97% 0.9 mph WNW1.4 kmh WNW 3.0 mph4.8 kmh 29.98 in1015.2 mb 0.00 in0.0 mm 0.00 in0.0 mm 0.01 in0.3 mm
01:38 AM 59.7°F15.4°C 58.8°F14.9°C 97% 0.9 mph W1.4 kmh W 2.9 mph4.7 kmh 29.98 in1015.2 mb 0.01 in0.3 mm 0.06 in1.5 mm 0.01 in0.3 mm
01:48 AM 59.5°F15.3°C 58.6°F14.8°C 97% 2.0 mph W3.2 kmh W 4.0 mph6.4 kmh 29.98 in1015.2 mb 0.01 in0.3 mm 0.00 in0.0 mm 0.01 in0.3 mm
01:58 AM 59.7°F15.4°C 58.8°F14.9°C 97% 2.0 mph WNW3.2 kmh WNW 4.0 mph6.4 kmh 29.98 in1015.2 mb 0.01 in0.3 mm 0.00 in0.0 mm 0.01 in0.3 mm
02:08 AM 59.5°F15.3°C 58.6°F14.8°C 97% 2.0 mph W3.2 kmh W 4.0 mph6.4 kmh 29.98 in1015.2 mb 0.01 in0.3 mm 0.00 in0.0 mm 0.01 in0.3 mm
02:18 AM 59.4°F15.2°C 58.5°F14.7°C 97% 2.0 mph W3.2 kmh W 4.9 mph7.9 kmh 29.97 in1014.9 mb 0.01 in0.3 mm 0.00 in0.0 mm 0.01 in0.3 mm
02:28 AM 59.4°F15.2°C 58.5°F14.7°C 97% 0.9 mph W1.4 kmh W 4.0 mph6.4 kmh 29.97 in1014.9 mb 0.01 in0.3 mm 0.00 in0.0 mm 0.01 in0.3 mm
02:38 AM 59.5°F15.3°C 58.6°F14.8°C 97% 0.9 mph WSW1.4 kmh WSW 4.0 mph6.4 kmh 29.97 in1014.9 mb 0.00 in0.0 mm 0.00 in0.0 mm 0.01 in0.3 mm
02:48 AM 59.5°F15.3°C 58.6°F14.8°C 97% 0.9 mph WSW1.4 kmh WSW 2.9 mph4.7 kmh 29.97 in1014.9 mb 0.00 in0.0 mm 0.00 in0.0 mm 0.01 in0.3 mm
02:58 AM 59.4°F15.2°C 58.5°F14.7°C 97% Calm Calm 0.9 mph1.4 kmh 29.96 in1014.6 mb 0.00 in0.0 mm 0.00 in0.0 mm 0.01 in0.3 mm
03:08 AM 59.4°F15.2°C 58.5°F14.7°C 97% Calm Calm 2.0 mph3.2 kmh 29.96 in1014.6 mb 0.00 in0.0 mm 0.00 in0.0 mm 0.01 in0.3 mm
03:18 AM 59.4°F15.2°C 58.5°F14.7°C 97% Calm Calm 2.9 mph4.7 kmh 29.96 in1014.6 mb 0.00 in0.0 mm 0.00 in0.0 mm 0.01 in0.3 mm
03:28 AM 59.4°F15.2°C 58.5°F14.7°C 97% 0.9 mph SSW1.4 kmh SSW 2.9 mph4.7 kmh 29.95 in1014.2 mb 0.00 in0.0 mm 0.00 in0.0 mm 0.01 in0.3 mm
03:38 AM 59.4°F15.2°C 58.5°F14.7°C 97% 0.9 mph SSE1.4 kmh SSE 4.0 mph6.4 kmh 29.95 in1014.2 mb 0.00 in0.0 mm 0.00 in0.0 mm 0.01 in0.3 mm
03:48 AM 59.4°F15.2°C 58.5°F14.7°C 97% 0.9 mph SW1.4 kmh SW 2.9 mph4.7 kmh 29.95 in1014.2 mb 0.00 in0.0 mm 0.00 in0.0 mm 0.01 in0.3 mm
03:58 AM 59.4°F15.2°C 58.5°F14.7°C 97% 0.9 mph WSW1.4 kmh WSW 7.0 mph11.3 kmh 29.95 in1014.2 mb 0.00 in0.0 mm 0.00 in0.0 mm 0.01 in0.3 mm
04:08 AM 59.2°F15.1°C 58.3°F14.6°C 97% 2.0 mph SW3.2 kmh SW 8.9 mph14.3 kmh 29.94 in1013.9 mb 0.00 in0.0 mm 0.00 in0.0 mm 0.01 in0.3 mm
04:18 AM 59.2°F15.1°C 58.3°F14.6°C 97% 4.0 mph S6.4 kmh S 8.1 mph13.0 kmh 29.94 in1013.9 mb 0.00 in0.0 mm 0.00 in0.0 mm 0.01 in0.3 mm
04:28 AM 59.0°F15.0°C 58.1°F14.5°C 97% 2.0 mph SSW3.2 kmh SSW 6.0 mph9.7 kmh 29.94 in1013.9 mb 0.00 in0.0 mm 0.00 in0.0 mm 0.01 in0.3 mm
04:38 AM 58.6°F14.8°C 57.7°F14.3°C 97% 2.0 mph WSW3.2 kmh WSW 6.0 mph9.7 kmh 29.94 in1013.9 mb 0.00 in0.0 mm 0.00 in0.0 mm 0.01 in0.3 mm
04:48 AM 58.6°F14.8°C 57.7°F14.3°C 97% 0.9 mph WSW1.4 kmh WSW 2.9 mph4.7 kmh 29.94 in1013.9 mb 0.00 in0.0 mm 0.00 in0.0 mm 0.01 in0.3 mm
04:58 AM 58.6°F14.8°C 57.7°F14.3°C 97% 0.9 mph SSW1.4 kmh SSW 4.0 mph6.4 kmh 29.94 in1013.9 mb 0.00 in0.0 mm 0.00 in0.0 mm 0.01 in0.3 mm
05:08 AM 58.6°F14.8°C 57.7°F14.3°C 97% 0.9 mph SE1.4 kmh SE 2.9 mph4.7 kmh 29.93 in1013.5 mb 0.00 in0.0 mm 0.00 in0.0 mm 0.01 in0.3 mm
05:18 AM 58.6°F14.8°C 57.7°F14.3°C 97% Calm Calm 0.9 mph1.4 kmh 29.94 in1013.9 mb 0.00 in0.0 mm 0.00 in0.0 mm 0.01 in0.3 mm
05:28 AM 58.6°F14.8°C 57.7°F14.3°C 97% Calm Calm -- 29.94 in1013.9 mb 0.00 in0.0 mm 0.00 in0.0 mm 0.01 in0.3 mm
05:38 AM 58.6°F14.8°C 57.7°F14.3°C 97% Calm Calm -- 29.94 in1013.9 mb 0.00 in0.0 mm 0.00 in0.0 mm 0.01 in0.3 mm
05:48 AM 58.8°F14.9°C 57.9°F14.4°C 97% Calm Calm 4.0 mph6.4 kmh 29.94 in1013.9 mb 0.00 in0.0 mm 0.00 in0.0 mm 0.01 in0.3 mm
05:58 AM 58.8°F14.9°C 57.9°F14.4°C 97% 2.0 mph WSW3.2 kmh WSW 4.0 mph6.4 kmh 29.94 in1013.9 mb 0.00 in0.0 mm 0.00 in0.0 mm 0.01 in0.3 mm
06:08 AM 58.6°F14.8°C 57.7°F14.3°C 97% 0.9 mph SSW1.4 kmh SSW 2.9 mph4.7 kmh 29.94 in1013.9 mb 0.00 in0.0 mm 0.00 in0.0 mm 0.01 in0.3 mm
06:18 AM 58.6°F14.8°C 57.7°F14.3°C 97% Calm Calm 2.9 mph4.7 kmh 29.94 in1013.9 mb 0.00 in0.0 mm 0.00 in0.0 mm 0.01 in0.3 mm
06:28 AM 58.6°F14.8°C 57.7°F14.3°C 97% 0.9 mph S1.4 kmh S 2.0 mph3.2 kmh 29.94 in1013.9 mb 0.00 in0.0 mm 0.00 in0.0 mm 0.01 in0.3 mm
06:38 AM 58.6°F14.8°C 57.7°F14.3°C 97% 0.9 mph S1.4 kmh S 2.9 mph4.7 kmh 29.94 in1013.9 mb 0.00 in0.0 mm 0.00 in0.0 mm 0.01 in0.3 mm
06:48 AM 58.8°F14.9°C 57.9°F14.4°C 97% 0.9 mph SSW1.4 kmh SSW 4.0 mph6.4 kmh 29.94 in1013.9 mb 0.01 in0.3 mm 0.06 in1.5 mm 0.02 in0.5 mm
06:58 AM 58.8°F14.9°C 57.9°F14.4°C 97% 0.9 mph SW1.4 kmh SW 2.9 mph4.7 kmh 29.94 in1013.9 mb 0.01 in0.3 mm 0.00 in0.0 mm 0.02 in0.5 mm
07:08 AM 58.8°F14.9°C 57.9°F14.4°C 97% 2.0 mph SE3.2 kmh SE 6.0 mph9.7 kmh 29.94 in1013.9 mb 0.01 in0.3 mm 0.00 in0.0 mm 0.02 in0.5 mm
07:18 AM 59.0°F15.0°C 58.1°F14.5°C 97% 2.0 mph SW3.2 kmh SW 4.9 mph7.9 kmh 29.94 in1013.9 mb 0.01 in0.3 mm 0.00 in0.0 mm 0.02 in0.5 mm
07:28 AM 59.0°F15.0°C 58.1°F14.5°C 97% 2.0 mph W3.2 kmh W 6.9 mph11.1 kmh 29.94 in1013.9 mb 0.01 in0.3 mm 0.00 in0.0 mm 0.02 in0.5 mm
07:38 AM 57.9°F14.4°C 56.8°F13.8°C 96% 6.9 mph W11.1 kmh W 16.1 mph25.9 kmh 29.95 in1014.2 mb 0.01 in0.3 mm 0.00 in0.0 mm 0.02 in0.5 mm
07:48 AM 57.4°F14.1°C 56.3°F13.5°C 96% 4.9 mph W7.9 kmh W 10.1 mph16.3 kmh 29.95 in1014.2 mb 0.00 in0.0 mm 0.00 in0.0 mm 0.02 in0.5 mm
07:58 AM 57.4°F14.1°C 56.3°F13.5°C 96% 4.9 mph W7.9 kmh W 11.0 mph17.7 kmh 29.95 in1014.2 mb 0.00 in0.0 mm 0.00 in0.0 mm 0.02 in0.5 mm
08:08 AM 57.0°F13.9°C 55.6°F13.1°C 95% 4.0 mph WSW6.4 kmh WSW 8.9 mph14.3 kmh 29.96 in1014.6 mb 0.00 in0.0 mm 0.00 in0.0 mm 0.02 in0.5 mm
08:18 AM 57.0°F13.9°C 55.6°F13.1°C 95% 2.9 mph W4.7 kmh W 6.9 mph11.1 kmh 29.96 in1014.6 mb 0.00 in0.0 mm 0.00 in0.0 mm 0.02 in0.5 mm
08:28 AM 57.0°F13.9°C 55.6°F13.1°C 95% 4.9 mph WNW7.9 kmh WNW 10.1 mph16.3 kmh 29.97 in1014.9 mb 0.00 in0.0 mm 0.00 in0.0 mm 0.02 in0.5 mm
08:38 AM 57.2°F14.0°C 55.4°F13.0°C 94% 4.9 mph W7.9 kmh W 8.9 mph14.3 kmh 29.97 in1014.9 mb 0.00 in0.0 mm 0.00 in0.0 mm 0.02 in0.5 mm
08:48 AM 57.7°F14.3°C 55.8°F13.2°C 93% 4.0 mph WSW6.4 kmh WSW 6.9 mph11.1 kmh 29.97 in1014.9 mb 0.00 in0.0 mm 0.00 in0.0 mm 0.02 in0.5 mm
08:58 AM 58.3°F14.6°C 55.9°F13.3°C 92% 2.9 mph WNW4.7 kmh WNW 6.0 mph9.7 kmh 29.97 in1014.9 mb 0.00 in0.0 mm 0.00 in0.0 mm 0.02 in0.5 mm
09:08 AM 58.1°F14.5°C 55.4°F13.0°C 91% 2.9 mph W4.7 kmh W 6.0 mph9.7 kmh 29.97 in1014.9 mb 0.00 in0.0 mm 0.00 in0.0 mm 0.02 in0.5 mm
09:18 AM 58.6°F14.8°C 55.8°F13.2°C 90% 2.9 mph W4.7 kmh W 6.9 mph11.1 kmh 29.97 in1014.9 mb 0.00 in0.0 mm 0.00 in0.0 mm 0.02 in0.5 mm
09:28 AM 59.2°F15.1°C 55.6°F13.1°C 88% 4.9 mph W7.9 kmh W 8.1 mph13.0 kmh 29.97 in1014.9 mb 0.00 in0.0 mm 0.00 in0.0 mm 0.02 in0.5 mm
09:38 AM 59.2°F15.1°C 55.6°F13.1°C 88% 4.9 mph WNW7.9 kmh WNW 8.9 mph14.3 kmh 29.98 in1015.2 mb 0.00 in0.0 mm 0.00 in0.0 mm 0.02 in0.5 mm
09:48 AM 59.0°F15.0°C 55.2°F12.9°C 87% 4.0 mph NW6.4 kmh NW 8.1 mph13.0 kmh 29.98 in1015.2 mb 0.00 in0.0 mm 0.00 in0.0 mm 0.02 in0.5 mm
09:58 AM 59.2°F15.1°C 55.0°F12.8°C 86% 4.0 mph W6.4 kmh W 9.0 mph14.5 kmh 29.98 in1015.2 mb 0.00 in0.0 mm 0.00 in0.0 mm 0.02 in0.5 mm
10:08 AM 59.5°F15.3°C 54.7°F12.6°C 84% 4.9 mph WNW7.9 kmh WNW 10.1 mph16.3 kmh 29.99 in1015.6 mb 0.00 in0.0 mm 0.00 in0.0 mm 0.02 in0.5 mm
10:18 AM 59.7°F15.4°C 54.9°F12.7°C 84% 6.0 mph W9.7 kmh W 10.1 mph16.3 kmh 29.99 in1015.6 mb 0.00 in0.0 mm 0.00 in0.0 mm 0.02 in0.5 mm
10:28 AM 60.6°F15.9°C 55.0°F12.8°C 82% 4.9 mph SW7.9 kmh SW 14.1 mph22.7 kmh 29.99 in1015.6 mb 0.00 in0.0 mm 0.00 in0.0 mm 0.02 in0.5 mm
10:38 AM 60.4°F15.8°C 54.5°F12.5°C 81% 6.0 mph NW9.7 kmh NW 12.0 mph19.3 kmh 29.99 in1015.6 mb 0.00 in0.0 mm 0.00 in0.0 mm 0.02 in0.5 mm
10:48 AM 60.4°F15.8°C 54.5°F12.5°C 81% 6.0 mph W9.7 kmh W 12.1 mph19.5 kmh 30.00 in1015.9 mb 0.00 in0.0 mm 0.00 in0.0 mm 0.02 in0.5 mm
10:58 AM 60.4°F15.8°C 54.0°F12.2°C 79% 6.0 mph WNW9.7 kmh WNW 12.1 mph19.5 kmh 30.00 in1015.9 mb 0.00 in0.0 mm 0.00 in0.0 mm 0.02 in0.5 mm
11:08 AM 61.3°F16.3°C 53.4°F11.9°C 75% 6.0 mph WNW9.7 kmh WNW 12.1 mph19.5 kmh 30.00 in1015.9 mb 0.00 in0.0 mm 0.00 in0.0 mm 0.02 in0.5 mm
11:18 AM 60.6°F15.9°C 53.1°F11.7°C 76% 6.9 mph WNW11.1 kmh WNW 12.1 mph19.5 kmh 30.00 in1015.9 mb 0.00 in0.0 mm 0.00 in0.0 mm 0.02 in0.5 mm
11:28 AM 61.3°F16.3°C 53.8°F12.1°C 76% 6.9 mph SW11.1 kmh SW 15.0 mph24.1 kmh 30.01 in1016.3 mb 0.00 in0.0 mm 0.00 in0.0 mm 0.02 in0.5 mm
11:38 AM 61.9°F16.6°C 53.8°F12.1°C 75% 4.9 mph WSW7.9 kmh WSW 11.0 mph17.7 kmh 30.01 in1016.3 mb 0.00 in0.0 mm 0.00 in0.0 mm 0.02 in0.5 mm
11:48 AM 61.9°F16.6°C 53.4°F11.9°C 74% 4.9 mph WNW7.9 kmh WNW 12.1 mph19.5 kmh 30.01 in1016.3 mb 0.00 in0.0 mm 0.00 in0.0 mm 0.02 in0.5 mm
11:58 AM 61.9°F16.6°C 52.7°F11.5°C 72% 6.0 mph WSW9.7 kmh WSW 11.0 mph17.7 kmh 30.01 in1016.3 mb 0.00 in0.0 mm 0.00 in0.0 mm 0.02 in0.5 mm
12:08 PM 62.2°F16.8°C 52.3°F11.3°C 70% 4.9 mph WSW7.9 kmh WSW 12.1 mph19.5 kmh 30.01 in1016.3 mb 0.00 in0.0 mm 0.00 in0.0 mm 0.02 in0.5 mm
12:18 PM 62.1°F16.7°C 51.8°F11.0°C 69% 6.0 mph W9.7 kmh W 13.0 mph20.9 kmh 30.01 in1016.3 mb 0.00 in0.0 mm 0.00 in0.0 mm 0.02 in0.5 mm
12:28 PM 61.7°F16.5°C 52.5°F11.4°C 72% 6.0 mph W9.7 kmh W 12.1 mph19.5 kmh 30.01 in1016.3 mb 0.00 in0.0 mm 0.00 in0.0 mm 0.02 in0.5 mm
12:38 PM 61.5°F16.4°C 51.6°F10.9°C 70% 6.0 mph WNW9.7 kmh WNW 13.0 mph20.9 kmh 30.00 in1015.9 mb 0.00 in0.0 mm 0.00 in0.0 mm 0.02 in0.5 mm
12:48 PM 61.5°F16.4°C 49.3°F9.6°C 64% 4.9 mph WSW7.9 kmh WSW 11.0 mph17.7 kmh 30.00 in1015.9 mb 0.00 in0.0 mm 0.00 in0.0 mm 0.02 in0.5 mm
12:58 PM 62.1°F16.7°C 50.9°F10.5°C 67% 4.9 mph SW7.9 kmh SW 8.9 mph14.3 kmh 30.00 in1015.9 mb 0.00 in0.0 mm 0.00 in0.0 mm 0.02 in0.5 mm
01:08 PM 62.4°F16.9°C 49.6°F9.8°C 63% 4.0 mph WSW6.4 kmh WSW 11.0 mph17.7 kmh 29.99 in1015.6 mb 0.00 in0.0 mm 0.00 in0.0 mm 0.02 in0.5 mm
01:18 PM 63.3°F17.4°C 48.4°F9.1°C 58% 4.9 mph WNW7.9 kmh WNW 11.0 mph17.7 kmh 29.99 in1015.6 mb 0.00 in0.0 mm 0.00 in0.0 mm 0.02 in0.5 mm
01:28 PM 63.3°F17.4°C 50.0°F10.0°C 62% 6.9 mph SW11.1 kmh SW 12.1 mph19.5 kmh 29.98 in1015.2 mb 0.00 in0.0 mm 0.00 in0.0 mm 0.02 in0.5 mm
01:38 PM 63.3°F17.4°C 50.9°F10.5°C 64% 6.0 mph WSW9.7 kmh WSW 13.0 mph20.9 kmh 29.98 in1015.2 mb 0.00 in0.0 mm 0.00 in0.0 mm 0.02 in0.5 mm
01:48 PM 63.5°F17.5°C 50.7°F10.4°C 63% 8.1 mph WNW13.0 kmh WNW 14.1 mph22.7 kmh 29.98 in1015.2 mb 0.00 in0.0 mm 0.00 in0.0 mm 0.02 in0.5 mm
01:58 PM 63.0°F17.2°C 51.4°F10.8°C 66% 8.1 mph W13.0 kmh W 16.1 mph25.9 kmh 29.98 in1015.2 mb 0.00 in0.0 mm 0.00 in0.0 mm 0.02 in0.5 mm
02:08 PM 62.4°F16.9°C 52.2°F11.2°C 69% 8.1 mph WNW13.0 kmh WNW 15.0 mph24.1 kmh 29.98 in1015.2 mb 0.00 in0.0 mm 0.00 in0.0 mm 0.02 in0.5 mm
02:18 PM 61.9°F16.6°C 51.6°F10.9°C 69% 6.9 mph W11.1 kmh W 12.1 mph19.5 kmh 29.98 in1015.2 mb 0.00 in0.0 mm 0.00 in0.0 mm 0.02 in0.5 mm
02:28 PM 62.1°F16.7°C 51.4°F10.8°C 68% 6.9 mph WNW11.1 kmh WNW 15.0 mph24.1 kmh 29.98 in1015.2 mb 0.00 in0.0 mm 0.00 in0.0 mm 0.02 in0.5 mm
02:38 PM 61.9°F16.6°C 51.6°F10.9°C 69% 8.1 mph WSW13.0 kmh WSW 14.1 mph22.7 kmh 29.98 in1015.2 mb 0.00 in0.0 mm 0.00 in0.0 mm 0.02 in0.5 mm
02:48 PM 62.6°F17.0°C 51.4°F10.8°C 67% 6.9 mph SW11.1 kmh SW 15.0 mph24.1 kmh 29.97 in1014.9 mb 0.00 in0.0 mm 0.00 in0.0 mm 0.02 in0.5 mm
02:58 PM 63.9°F17.7°C 52.7°F11.5°C 67% 4.9 mph WSW7.9 kmh WSW 11.0 mph17.7 kmh 29.97 in1014.9 mb 0.00 in0.0 mm 0.00 in0.0 mm 0.02 in0.5 mm
03:08 PM 63.1°F17.3°C 51.6°F10.9°C 66% 8.1 mph NW13.0 kmh NW 16.1 mph25.9 kmh 29.97 in1014.9 mb 0.00 in0.0 mm 0.00 in0.0 mm 0.02 in0.5 mm
03:18 PM 63.1°F17.3°C 52.3°F11.3°C 68% 8.1 mph NNE13.0 kmh NNE 14.1 mph22.7 kmh 29.97 in1014.9 mb 0.00 in0.0 mm 0.00 in0.0 mm 0.02 in0.5 mm
03:28 PM 63.0°F17.2°C 53.1°F11.7°C 70% 8.1 mph WNW13.0 kmh WNW 15.0 mph24.1 kmh 29.97 in1014.9 mb 0.00 in0.0 mm 0.00 in0.0 mm 0.02 in0.5 mm
03:38 PM 62.4°F16.9°C 52.2°F11.2°C 69% 8.1 mph W13.0 kmh W 15.0 mph24.1 kmh 29.97 in1014.9 mb 0.00 in0.0 mm 0.00 in0.0 mm 0.02 in0.5 mm
03:48 PM 62.4°F16.9°C 52.9°F11.6°C 71% 8.9 mph SW14.3 kmh SW 16.1 mph25.9 kmh 29.97 in1014.9 mb 0.00 in0.0 mm 0.00 in0.0 mm 0.02 in0.5 mm
03:58 PM 62.2°F16.8°C 51.6°F10.9°C 68% 8.1 mph W13.0 kmh W 14.1 mph22.7 kmh 29.96 in1014.6 mb 0.00 in0.0 mm 0.00 in0.0 mm 0.02 in0.5 mm
04:08 PM 62.8°F17.1°C 52.5°F11.4°C 69% 6.9 mph WSW11.1 kmh WSW 14.1 mph22.7 kmh 29.96 in1014.6 mb 0.00 in0.0 mm 0.00 in0.0 mm 0.02 in0.5 mm
04:18 PM 62.8°F17.1°C 52.0°F11.1°C 68% 6.9 mph NW11.1 kmh NW 13.0 mph20.9 kmh 29.96 in1014.6 mb 0.00 in0.0 mm 0.00 in0.0 mm 0.02 in0.5 mm
04:28 PM 62.4°F16.9°C 52.5°F11.4°C 70% 6.9 mph W11.1 kmh W 12.1 mph19.5 kmh 29.96 in1014.6 mb 0.00 in0.0 mm 0.00 in0.0 mm 0.02 in0.5 mm
04:38 PM 62.4°F16.9°C 51.8°F11.0°C 68% 8.1 mph NW13.0 kmh NW 14.1 mph22.7 kmh 29.96 in1014.6 mb 0.00 in0.0 mm 0.00 in0.0 mm 0.02 in0.5 mm
04:48 PM 62.4°F16.9°C 52.5°F11.4°C 70% 6.9 mph WSW11.1 kmh WSW 13.0 mph20.9 kmh 29.96 in1014.6 mb 0.00 in0.0 mm 0.00 in0.0 mm 0.02 in0.5 mm
04:58 PM 62.4°F16.9°C 51.8°F11.0°C 68% 6.0 mph WSW9.7 kmh WSW 13.0 mph20.9 kmh 29.96 in1014.6 mb 0.00 in0.0 mm 0.00 in0.0 mm 0.02 in0.5 mm
05:08 PM 62.6°F17.0°C 52.3°F11.3°C 69% 6.0 mph WSW9.7 kmh WSW 11.0 mph17.7 kmh 29.96 in1014.6 mb 0.00 in0.0 mm 0.00 in0.0 mm 0.02 in0.5 mm
05:18 PM 61.9°F16.6°C 52.0°F11.1°C 70% 8.1 mph WNW13.0 kmh WNW 15.0 mph24.1 kmh 29.96 in1014.6 mb 0.00 in0.0 mm 0.00 in0.0 mm 0.02 in0.5 mm
05:28 PM 61.5°F16.4°C 52.3°F11.3°C 72% 6.0 mph W9.7 kmh W 12.1 mph19.5 kmh 29.96 in1014.6 mb 0.00 in0.0 mm 0.00 in0.0 mm 0.02 in0.5 mm
05:38 PM 60.6°F15.9°C 52.0°F11.1°C 73% 6.0 mph W9.7 kmh W 11.0 mph17.7 kmh 29.96 in1014.6 mb 0.00 in0.0 mm 0.00 in0.0 mm 0.02 in0.5 mm
05:48 PM 61.0°F16.1°C 52.0°F11.1°C 72% 4.9 mph W7.9 kmh W 10.1 mph16.3 kmh 29.96 in1014.6 mb 0.00 in0.0 mm 0.00 in0.0 mm 0.02 in0.5 mm
05:58 PM 60.8°F16.0°C 51.8°F11.0°C 72% 6.9 mph WNW11.1 kmh WNW 13.0 mph20.9 kmh 29.96 in1014.6 mb 0.00 in0.0 mm 0.00 in0.0 mm 0.02 in0.5 mm
06:08 PM 60.1°F15.6°C 52.5°F11.4°C 76% 4.9 mph NW7.9 kmh NW 10.1 mph16.3 kmh 29.96 in1014.6 mb 0.00 in0.0 mm 0.00 in0.0 mm 0.02 in0.5 mm
06:19 PM 59.9°F15.5°C 51.6°F10.9°C 74% 4.9 mph W7.9 kmh W 10.1 mph16.3 kmh 29.96 in1014.6 mb 0.00 in0.0 mm 0.00 in0.0 mm 0.02 in0.5 mm
06:29 PM 59.5°F15.3°C 52.0°F11.1°C 76% 4.9 mph NW7.9 kmh NW 8.9 mph14.3 kmh 29.96 in1014.6 mb 0.00 in0.0 mm 0.00 in0.0 mm 0.02 in0.5 mm
06:39 PM 59.2°F15.1°C 52.3°F11.3°C 78% 4.0 mph W6.4 kmh W 8.1 mph13.0 kmh 29.96 in1014.6 mb 0.00 in0.0 mm 0.00 in0.0 mm 0.02 in0.5 mm
06:49 PM 58.8°F14.9°C 52.3°F11.3°C 79% 4.0 mph NW6.4 kmh NW 8.1 mph13.0 kmh 29.96 in1014.6 mb 0.00 in0.0 mm 0.00 in0.0 mm 0.02 in0.5 mm
06:59 PM 58.8°F14.9°C 53.1°F11.7°C 81% 2.9 mph WNW4.7 kmh WNW 6.9 mph11.1 kmh 29.95 in1014.2 mb 0.00 in0.0 mm 0.00 in0.0 mm 0.02 in0.5 mm
07:09 PM 58.6°F14.8°C 52.5°F11.4°C 80% 4.0 mph WNW6.4 kmh WNW 7.0 mph11.3 kmh 29.95 in1014.2 mb 0.00 in0.0 mm 0.00 in0.0 mm 0.02 in0.5 mm
07:19 PM 58.3°F14.6°C 52.5°F11.4°C 81% 2.9 mph WNW4.7 kmh WNW 8.1 mph13.0 kmh 29.95 in1014.2 mb 0.00 in0.0 mm 0.00 in0.0 mm 0.02 in0.5 mm
07:29 PM 57.7°F14.3°C 52.3°F11.3°C 82% 2.0 mph SW3.2 kmh SW 4.9 mph7.9 kmh 29.95 in1014.2 mb 0.00 in0.0 mm 0.00 in0.0 mm 0.02 in0.5 mm
07:39 PM 57.6°F14.2°C 52.5°F11.4°C 83% Calm Calm 2.9 mph4.7 kmh 29.96 in1014.6 mb 0.00 in0.0 mm 0.00 in0.0 mm 0.02 in0.5 mm
07:49 PM 57.4°F14.1°C 52.5°F11.4°C 84% Calm Calm 2.0 mph3.2 kmh 29.96 in1014.6 mb 0.00 in0.0 mm 0.00 in0.0 mm 0.02 in0.5 mm
07:59 PM 57.4°F14.1°C 52.9°F11.6°C 85% Calm Calm 2.0 mph3.2 kmh 29.95 in1014.2 mb 0.00 in0.0 mm 0.00 in0.0 mm 0.02 in0.5 mm
08:09 PM 57.6°F14.2°C 53.1°F11.7°C 85% Calm Calm 2.9 mph4.7 kmh 29.95 in1014.2 mb 0.00 in0.0 mm 0.00 in0.0 mm 0.02 in0.5 mm
08:19 PM 57.2°F14.0°C 53.4°F11.9°C 87% Calm Calm 2.0 mph3.2 kmh 29.95 in1014.2 mb 0.00 in0.0 mm 0.00 in0.0 mm 0.02 in0.5 mm
08:29 PM 56.8°F13.8°C 53.1°F11.7°C 87% Calm Calm 0.9 mph1.4 kmh 29.96 in1014.6 mb 0.00 in0.0 mm 0.00 in0.0 mm 0.02 in0.5 mm
08:39 PM 56.7°F13.7°C 53.1°F11.7°C 88% Calm Calm 0.9 mph1.4 kmh 29.96 in1014.6 mb 0.00 in0.0 mm 0.00 in0.0 mm 0.02 in0.5 mm
08:49 PM 56.1°F13.4°C 52.9°F11.6°C 89% Calm Calm -- 29.96 in1014.6 mb 0.00 in0.0 mm 0.00 in0.0 mm 0.02 in0.5 mm
08:59 PM 55.8°F13.2°C 52.9°F11.6°C 90% Calm Calm -- 29.96 in1014.6 mb 0.00 in0.0 mm 0.00 in0.0 mm 0.02 in0.5 mm
09:09 PM 55.6°F13.1°C 52.7°F11.5°C 90% Calm Calm 1.0 mph1.6 kmh 29.96 in1014.6 mb 0.00 in0.0 mm 0.00 in0.0 mm 0.02 in0.5 mm
09:19 PM 55.0°F12.8°C 52.5°F11.4°C 91% Calm Calm -- 29.96 in1014.6 mb 0.00 in0.0 mm 0.00 in0.0 mm 0.02 in0.5 mm
09:29 PM 54.9°F12.7°C 52.5°F11.4°C 92% Calm Calm 0.9 mph1.4 kmh 29.96 in1014.6 mb 0.00 in0.0 mm 0.00 in0.0 mm 0.02 in0.5 mm
09:39 PM 54.9°F12.7°C 52.5°F11.4°C 92% Calm Calm -- 29.96 in1014.6 mb 0.00 in0.0 mm 0.00 in0.0 mm 0.02 in0.5 mm
09:49 PM 54.9°F12.7°C 52.5°F11.4°C 92% Calm Calm -- 29.96 in1014.6 mb 0.00 in0.0 mm 0.00 in0.0 mm 0.02 in0.5 mm
09:59 PM 55.2°F12.9°C 52.9°F11.6°C 92% Calm Calm -- 29.97 in1014.9 mb 0.00 in0.0 mm 0.00 in0.0 mm 0.02 in0.5 mm
10:09 PM 55.4°F13.0°C 53.1°F11.7°C 92% Calm Calm -- 29.97 in1014.9 mb 0.00 in0.0 mm 0.00 in0.0 mm 0.02 in0.5 mm
10:19 PM 55.4°F13.0°C 53.1°F11.7°C 92% Calm Calm -- 29.97 in1014.9 mb 0.00 in0.0 mm 0.00 in0.0 mm 0.02 in0.5 mm
10:29 PM 55.4°F13.0°C 53.4°F11.9°C 93% Calm Calm 1.0 mph1.6 kmh 29.96 in1014.6 mb 0.00 in0.0 mm 0.00 in0.0 mm 0.02 in0.5 mm
10:39 PM 55.4°F13.0°C 53.4°F11.9°C 93% Calm Calm 0.9 mph1.4 kmh 29.96 in1014.6 mb 0.00 in0.0 mm 0.00 in0.0 mm 0.02 in0.5 mm
10:49 PM 55.4°F13.0°C 53.4°F11.9°C 93% Calm Calm 0.9 mph1.4 kmh 29.96 in1014.6 mb 0.00 in0.0 mm 0.00 in0.0 mm 0.02 in0.5 mm
10:59 PM 55.2°F12.9°C 53.2°F11.8°C 93% Calm Calm 0.9 mph1.4 kmh 29.96 in1014.6 mb 0.00 in0.0 mm 0.00 in0.0 mm 0.02 in0.5 mm
11:09 PM 55.4°F13.0°C 53.4°F11.9°C 93% Calm Calm 0.9 mph1.4 kmh 29.96 in1014.6 mb 0.00 in0.0 mm 0.00 in0.0 mm 0.02 in0.5 mm
11:19 PM 55.4°F13.0°C 53.4°F11.9°C 93% Calm Calm 0.9 mph1.4 kmh 29.96 in1014.6 mb 0.00 in0.0 mm 0.00 in0.0 mm 0.02 in0.5 mm
11:29 PM 55.2°F12.9°C 53.2°F11.8°C 93% Calm Calm -- 29.95 in1014.2 mb 0.00 in0.0 mm 0.00 in0.0 mm 0.02 in0.5 mm
11:39 PM 55.2°F12.9°C 53.2°F11.8°C 93% Calm Calm -- 29.95 in1014.2 mb 0.00 in0.0 mm 0.00 in0.0 mm 0.02 in0.5 mm
11:49 PM 55.2°F12.9°C 53.2°F11.8°C 93% Calm Calm 2.0 mph3.2 kmh 29.95 in1014.2 mb 0.00 in0.0 mm 0.00 in0.0 mm 0.02 in0.5 mm
11:59 PM 55.6°F13.1°C 53.2°F11.8°C 92% Calm Calm 0.9 mph1.4 kmh 29.95 in1014.2 mb 0.00 in0.0 mm 0.00 in0.0 mm 0.02 in0.5 mm